Southfield, Michigan
Current Conditions -  °F | °C
As of 11:59 AM on Saturday 22 Nov 2014 (Local Time) from KVLL Reporting Station
Haze Haze  
Wind Chill: 29°   Ceiling: 800
Heat Index: 37°   Visibility: 5mi
Dew Point: 34°   Wind: 14mph
Humidity: 87%   Direction: 210°SSW
Pressure: 30.03"   Gusts: 22mph
Location:  42.48°N, 83.24°W
Report Text: KVLL 221659Z AUTO 21012G19KT 5SM BR OVC008 03/01 A3003 RMK AO2
Loading
Personal Weather Stations






























Interactive Weather Map New forecast layout! Learn more

10-Day Weather Forecast

Advertisements
Track Severe Weather on mobile